sensor_id;sensor_type;location;lat;lon;timestamp;temperature;humidity
22290;DHT22;11313;50.116;8.424;2023-04-24T00:00:19;23.20;46.10
22290;DHT22;11313;50.116;8.424;2023-04-24T00:02:45;23.20;46.10
22290;DHT22;11313;50.116;8.424;2023-04-24T00:05:14;23.20;46.10
22290;DHT22;11313;50.116;8.424;2023-04-24T00:07:41;23.20;46.10
22290;DHT22;11313;50.116;8.424;2023-04-24T00:10:08;23.20;46.10
22290;DHT22;11313;50.116;8.424;2023-04-24T00:12:33;23.20;46.10
22290;DHT22;11313;50.116;8.424;2023-04-24T00:14:59;23.20;46.10
22290;DHT22;11313;50.116;8.424;2023-04-24T00:17:25;23.20;46.00
22290;DHT22;11313;50.116;8.424;2023-04-24T00:19:50;23.20;46.00
22290;DHT22;11313;50.116;8.424;2023-04-24T00:22:16;23.20;46.10
22290;DHT22;11313;50.116;8.424;2023-04-24T00:24:43;23.20;46.10
22290;DHT22;11313;50.116;8.424;2023-04-24T00:27:08;23.20;46.10
22290;DHT22;11313;50.116;8.424;2023-04-24T00:29:34;23.20;46.10
22290;DHT22;11313;50.116;8.424;2023-04-24T00:31:59;23.20;46.10
22290;DHT22;11313;50.116;8.424;2023-04-24T00:34:25;23.20;46.10
22290;DHT22;11313;50.116;8.424;2023-04-24T00:36:51;23.20;46.10
22290;DHT22;11313;50.116;8.424;2023-04-24T00:39:18;23.20;46.10
22290;DHT22;11313;50.116;8.424;2023-04-24T00:41:44;23.20;46.10
22290;DHT22;11313;50.116;8.424;2023-04-24T00:44:10;23.20;46.10
22290;DHT22;11313;50.116;8.424;2023-04-24T00:46:36;23.20;46.10
22290;DHT22;11313;50.116;8.424;2023-04-24T00:49:02;23.30;46.10
22290;DHT22;11313;50.116;8.424;2023-04-24T00:51:28;23.30;46.10
22290;DHT22;11313;50.116;8.424;2023-04-24T00:53:53;23.30;46.10
22290;DHT22;11313;50.116;8.424;2023-04-24T00:56:19;23.30;46.10
22290;DHT22;11313;50.116;8.424;2023-04-24T00:58:45;23.30;46.10
22290;DHT22;11313;50.116;8.424;2023-04-24T01:01:11;23.30;46.10
22290;DHT22;11313;50.116;8.424;2023-04-24T01:03:37;23.30;46.00
22290;DHT22;11313;50.116;8.424;2023-04-24T01:06:04;23.30;46.00
22290;DHT22;11313;50.116;8.424;2023-04-24T01:08:30;23.30;46.00
22290;DHT22;11313;50.116;8.424;2023-04-24T01:10:57;23.30;46.00
22290;DHT22;11313;50.116;8.424;2023-04-24T01:13:23;23.30;46.60
22290;DHT22;11313;50.116;8.424;2023-04-24T01:15:48;23.40;46.00
22290;DHT22;11313;50.116;8.424;2023-04-24T01:18:14;23.40;45.90
22290;DHT22;11313;50.116;8.424;2023-04-24T01:20:42;23.40;45.90
22290;DHT22;11313;50.116;8.424;2023-04-24T01:23:09;23.30;45.90
22290;DHT22;11313;50.116;8.424;2023-04-24T01:25:34;23.40;45.90
22290;DHT22;11313;50.116;8.424;2023-04-24T01:28:00;23.40;45.90
22290;DHT22;11313;50.116;8.424;2023-04-24T01:30:29;23.40;45.90
22290;DHT22;11313;50.116;8.424;2023-04-24T01:32:55;23.40;45.90
22290;DHT22;11313;50.116;8.424;2023-04-24T01:35:21;23.40;45.90
22290;DHT22;11313;50.116;8.424;2023-04-24T01:37:46;23.40;45.80
22290;DHT22;11313;50.116;8.424;2023-04-24T01:40:12;23.40;45.80
22290;DHT22;11313;50.116;8.424;2023-04-24T01:42:38;23.40;45.80
22290;DHT22;11313;50.116;8.424;2023-04-24T01:45:04;23.40;45.80
22290;DHT22;11313;50.116;8.424;2023-04-24T01:47:31;23.40;45.80
22290;DHT22;11313;50.116;8.424;2023-04-24T01:49:57;23.40;45.80
22290;DHT22;11313;50.116;8.424;2023-04-24T01:52:23;23.40;45.80
22290;DHT22;11313;50.116;8.424;2023-04-24T01:54:48;23.40;45.80
22290;DHT22;11313;50.116;8.424;2023-04-24T01:57:14;23.50;45.80
22290;DHT22;11313;50.116;8.424;2023-04-24T01:59:42;23.40;45.70
22290;DHT22;11313;50.116;8.424;2023-04-24T02:02:08;23.40;45.70
22290;DHT22;11313;50.116;8.424;2023-04-24T02:04:33;23.50;45.80
22290;DHT22;11313;50.116;8.424;2023-04-24T02:07:02;23.50;45.80
22290;DHT22;11313;50.116;8.424;2023-04-24T02:09:27;23.50;45.80
22290;DHT22;11313;50.116;8.424;2023-04-24T02:11:52;23.50;45.80
22290;DHT22;11313;50.116;8.424;2023-04-24T02:14:18;23.50;45.80
22290;DHT22;11313;50.116;8.424;2023-04-24T02:16:43;23.50;45.80
22290;DHT22;11313;50.116;8.424;2023-04-24T02:19:09;23.50;45.70
22290;DHT22;11313;50.116;8.424;2023-04-24T02:21:35;23.50;45.80
22290;DHT22;11313;50.116;8.424;2023-04-24T02:24:01;23.40;45.70
22290;DHT22;11313;50.116;8.424;2023-04-24T02:26:26;23.50;45.80
22290;DHT22;11313;50.116;8.424;2023-04-24T02:28:52;23.50;45.80
22290;DHT22;11313;50.116;8.424;2023-04-24T02:31:17;23.50;45.80
22290;DHT22;11313;50.116;8.424;2023-04-24T02:33:43;23.40;46.30
22290;DHT22;11313;50.116;8.424;2023-04-24T02:36:08;23.50;45.80
22290;DHT22;11313;50.116;8.424;2023-04-24T02:38:34;23.50;45.70
22290;DHT22;11313;50.116;8.424;2023-04-24T02:41:00;23.50;45.80
22290;DHT22;11313;50.116;8.424;2023-04-24T02:43:26;23.50;45.80
22290;DHT22;11313;50.116;8.424;2023-04-24T02:45:51;23.50;45.80
22290;DHT22;11313;50.116;8.424;2023-04-24T02:48:17;23.50;45.80
22290;DHT22;11313;50.116;8.424;2023-04-24T02:50:42;23.50;45.80
22290;DHT22;11313;50.116;8.424;2023-04-24T02:53:08;23.50;45.80
22290;DHT22;11313;50.116;8.424;2023-04-24T02:55:33;23.50;45.80
22290;DHT22;11313;50.116;8.424;2023-04-24T02:57:59;23.50;45.80
22290;DHT22;11313;50.116;8.424;2023-04-24T03:00:25;23.50;45.80
22290;DHT22;11313;50.116;8.424;2023-04-24T03:02:50;23.40;45.70
22290;DHT22;11313;50.116;8.424;2023-04-24T03:05:16;23.50;45.80
22290;DHT22;11313;50.116;8.424;2023-04-24T03:07:41;23.40;45.70
22290;DHT22;11313;50.116;8.424;2023-04-24T03:10:07;23.50;45.80
22290;DHT22;11313;50.116;8.424;2023-04-24T03:12:33;23.40;45.80
22290;DHT22;11313;50.116;8.424;2023-04-24T03:14:58;23.40;45.80
22290;DHT22;11313;50.116;8.424;2023-04-24T03:17:24;23.50;45.80
22290;DHT22;11313;50.116;8.424;2023-04-24T03:19:50;23.50;46.50
22290;DHT22;11313;50.116;8.424;2023-04-24T03:22:15;23.50;45.80
22290;DHT22;11313;50.116;8.424;2023-04-24T03:24:41;23.40;45.70
22290;DHT22;11313;50.116;8.424;2023-04-24T03:27:06;23.50;45.80
22290;DHT22;11313;50.116;8.424;2023-04-24T03:29:32;23.40;46.40
22290;DHT22;11313;50.116;8.424;2023-04-24T03:31:57;23.50;45.80
22290;DHT22;11313;50.116;8.424;2023-04-24T03:34:23;23.50;45.80
22290;DHT22;11313;50.116;8.424;2023-04-24T03:36:48;23.50;45.80
22290;DHT22;11313;50.116;8.424;2023-04-24T03:39:14;23.50;45.80
22290;DHT22;11313;50.116;8.424;2023-04-24T03:41:39;23.50;45.80
22290;DHT22;11313;50.116;8.424;2023-04-24T03:44:05;23.50;45.80
22290;DHT22;11313;50.116;8.424;2023-04-24T03:46:30;23.50;45.80
22290;DHT22;11313;50.116;8.424;2023-04-24T03:48:56;23.40;45.70
22290;DHT22;11313;50.116;8.424;2023-04-24T03:51:21;23.50;45.80
22290;DHT22;11313;50.116;8.424;2023-04-24T03:53:48;23.40;45.70
22290;DHT22;11313;50.116;8.424;2023-04-24T03:56:14;23.50;45.80
22290;DHT22;11313;50.116;8.424;2023-04-24T03:58:40;23.40;45.70
22290;DHT22;11313;50.116;8.424;2023-04-24T04:01:05;23.50;45.90
22290;DHT22;11313;50.116;8.424;2023-04-24T04:03:31;23.50;45.80
22290;DHT22;11313;50.116;8.424;2023-04-24T04:05:57;23.50;45.80
22290;DHT22;11313;50.116;8.424;2023-04-24T04:08:22;23.40;45.80
22290;DHT22;11313;50.116;8.424;2023-04-24T04:10:48;23.40;45.80
22290;DHT22;11313;50.116;8.424;2023-04-24T04:13:13;23.40;45.80
22290;DHT22;11313;50.116;8.424;2023-04-24T04:15:39;23.40;45.80
22290;DHT22;11313;50.116;8.424;2023-04-24T04:18:04;23.40;45.90
22290;DHT22;11313;50.116;8.424;2023-04-24T04:20:30;23.40;45.90
22290;DHT22;11313;50.116;8.424;2023-04-24T04:22:56;23.40;45.90
22290;DHT22;11313;50.116;8.424;2023-04-24T04:25:21;23.40;45.90
22290;DHT22;11313;50.116;8.424;2023-04-24T04:27:48;23.40;45.90
22290;DHT22;11313;50.116;8.424;2023-04-24T04:30:14;23.40;45.90
22290;DHT22;11313;50.116;8.424;2023-04-24T04:32:39;23.40;45.90
22290;DHT22;11313;50.116;8.424;2023-04-24T04:35:05;23.40;45.90
22290;DHT22;11313;50.116;8.424;2023-04-24T04:37:34;23.40;45.90
22290;DHT22;11313;50.116;8.424;2023-04-24T04:40:01;23.40;45.90
22290;DHT22;11313;50.116;8.424;2023-04-24T04:42:31;23.40;45.90
22290;DHT22;11313;50.116;8.424;2023-04-24T04:44:57;23.40;46.10
22290;DHT22;11313;50.116;8.424;2023-04-24T04:47:23;23.40;45.90
22290;DHT22;11313;50.116;8.424;2023-04-24T04:49:49;23.40;45.90
22290;DHT22;11313;50.116;8.424;2023-04-24T04:52:16;23.40;46.00
22290;DHT22;11313;50.116;8.424;2023-04-24T04:54:42;23.40;45.90
22290;DHT22;11313;50.116;8.424;2023-04-24T04:57:08;23.40;45.90
22290;DHT22;11313;50.116;8.424;2023-04-24T04:59:34;23.40;45.90
22290;DHT22;11313;50.116;8.424;2023-04-24T05:01:59;23.40;45.90
22290;DHT22;11313;50.116;8.424;2023-04-24T05:04:25;23.40;45.90
22290;DHT22;11313;50.116;8.424;2023-04-24T05:06:51;23.40;45.90
22290;DHT22;11313;50.116;8.424;2023-04-24T05:09:17;23.40;45.90
22290;DHT22;11313;50.116;8.424;2023-04-24T05:11:43;23.40;45.90
22290;DHT22;11313;50.116;8.424;2023-04-24T05:14:08;23.40;46.00
22290;DHT22;11313;50.116;8.424;2023-04-24T05:16:34;23.40;46.20
22290;DHT22;11313;50.116;8.424;2023-04-24T05:18:59;23.40;46.30
22290;DHT22;11313;50.116;8.424;2023-04-24T05:21:25;23.40;46.40
22290;DHT22;11313;50.116;8.424;2023-04-24T05:23:52;23.40;46.50
22290;DHT22;11313;50.116;8.424;2023-04-24T05:26:17;23.40;46.50
22290;DHT22;11313;50.116;8.424;2023-04-24T05:28:43;23.40;46.50
22290;DHT22;11313;50.116;8.424;2023-04-24T05:31:08;23.40;46.50
22290;DHT22;11313;50.116;8.424;2023-04-24T05:33:34;23.40;46.50
22290;DHT22;11313;50.116;8.424;2023-04-24T05:35:59;23.40;46.60
22290;DHT22;11313;50.116;8.424;2023-04-24T05:38:25;23.40;46.60
22290;DHT22;11313;50.116;8.424;2023-04-24T05:40:50;23.40;46.60
22290;DHT22;11313;50.116;8.424;2023-04-24T05:43:16;23.40;46.60
22290;DHT22;11313;50.116;8.424;2023-04-24T05:45:41;23.40;46.60
22290;DHT22;11313;50.116;8.424;2023-04-24T05:48:07;23.40;46.60
22290;DHT22;11313;50.116;8.424;2023-04-24T05:50:32;23.40;46.60
22290;DHT22;11313;50.116;8.424;2023-04-24T05:52:58;23.40;46.60
22290;DHT22;11313;50.116;8.424;2023-04-24T05:55:24;23.40;46.60
22290;DHT22;11313;50.116;8.424;2023-04-24T05:57:51;23.40;46.60
22290;DHT22;11313;50.116;8.424;2023-04-24T06:00:16;23.40;46.50
22290;DHT22;11313;50.116;8.424;2023-04-24T06:02:44;23.40;46.60
22290;DHT22;11313;50.116;8.424;2023-04-24T06:05:10;23.40;46.50
22290;DHT22;11313;50.116;8.424;2023-04-24T06:07:36;23.40;46.60
22290;DHT22;11313;50.116;8.424;2023-04-24T06:10:01;23.40;46.50
22290;DHT22;11313;50.116;8.424;2023-04-24T06:12:27;23.50;46.60
22290;DHT22;11313;50.116;8.424;2023-04-24T06:14:53;23.40;46.50
22290;DHT22;11313;50.116;8.424;2023-04-24T06:17:19;23.40;46.50
22290;DHT22;11313;50.116;8.424;2023-04-24T06:19:45;23.50;46.50
22290;DHT22;11313;50.116;8.424;2023-04-24T06:22:10;23.50;46.50
22290;DHT22;11313;50.116;8.424;2023-04-24T06:24:36;23.50;46.40
22290;DHT22;11313;50.116;8.424;2023-04-24T06:27:01;23.50;46.40
22290;DHT22;11313;50.116;8.424;2023-04-24T06:29:27;23.50;46.40
22290;DHT22;11313;50.116;8.424;2023-04-24T06:31:53;23.50;46.40
22290;DHT22;11313;50.116;8.424;2023-04-24T06:34:18;23.50;46.40
22290;DHT22;11313;50.116;8.424;2023-04-24T06:36:44;23.50;46.30
22290;DHT22;11313;50.116;8.424;2023-04-24T06:39:10;23.50;46.40
22290;DHT22;11313;50.116;8.424;2023-04-24T06:41:35;23.50;46.30
22290;DHT22;11313;50.116;8.424;2023-04-24T06:44:01;23.50;46.20
22290;DHT22;11313;50.116;8.424;2023-04-24T06:46:26;23.60;46.30
22290;DHT22;11313;50.116;8.424;2023-04-24T06:48:53;23.60;46.20
22290;DHT22;11313;50.116;8.424;2023-04-24T06:51:25;23.60;46.20
22290;DHT22;11313;50.116;8.424;2023-04-24T06:53:52;23.60;46.20
22290;DHT22;11313;50.116;8.424;2023-04-24T06:56:17;23.60;46.10
22290;DHT22;11313;50.116;8.424;2023-04-24T06:58:43;23.60;46.10
22290;DHT22;11313;50.116;8.424;2023-04-24T07:01:09;23.60;46.10
22290;DHT22;11313;50.116;8.424;2023-04-24T07:03:35;23.70;46.10
22290;DHT22;11313;50.116;8.424;2023-04-24T07:06:01;23.60;46.00
22290;DHT22;11313;50.116;8.424;2023-04-24T07:08:26;23.70;46.00
22290;DHT22;11313;50.116;8.424;2023-04-24T07:10:52;23.70;46.60
22290;DHT22;11313;50.116;8.424;2023-04-24T07:13:17;23.70;46.00
22290;DHT22;11313;50.116;8.424;2023-04-24T07:15:43;23.70;45.90
22290;DHT22;11313;50.116;8.424;2023-04-24T07:18:08;23.70;45.90
22290;DHT22;11313;50.116;8.424;2023-04-24T07:20:34;23.70;45.80
22290;DHT22;11313;50.116;8.424;2023-04-24T07:23:00;23.70;45.80
22290;DHT22;11313;50.116;8.424;2023-04-24T07:25:25;23.70;45.80
22290;DHT22;11313;50.116;8.424;2023-04-24T07:27:51;23.80;45.80
22290;DHT22;11313;50.116;8.424;2023-04-24T07:30:16;23.80;45.80
22290;DHT22;11313;50.116;8.424;2023-04-24T07:32:42;23.80;45.70
22290;DHT22;11313;50.116;8.424;2023-04-24T07:35:07;23.80;45.70
22290;DHT22;11313;50.116;8.424;2023-04-24T07:37:35;23.80;45.70
22290;DHT22;11313;50.116;8.424;2023-04-24T07:40:00;23.80;45.70
22290;DHT22;11313;50.116;8.424;2023-04-24T07:42:26;23.80;45.70
22290;DHT22;11313;50.116;8.424;2023-04-24T07:44:51;23.80;45.60
22290;DHT22;11313;50.116;8.424;2023-04-24T07:47:17;23.80;45.60
22290;DHT22;11313;50.116;8.424;2023-04-24T07:49:43;23.80;45.60
22290;DHT22;11313;50.116;8.424;2023-04-24T07:52:08;23.80;45.50
22290;DHT22;11313;50.116;8.424;2023-04-24T07:54:34;23.80;45.50
22290;DHT22;11313;50.116;8.424;2023-04-24T07:56:59;23.80;45.50
22290;DHT22;11313;50.116;8.424;2023-04-24T07:59:26;23.80;45.50
22290;DHT22;11313;50.116;8.424;2023-04-24T08:01:52;23.80;45.40
22290;DHT22;11313;50.116;8.424;2023-04-24T08:04:19;23.80;45.40
22290;DHT22;11313;50.116;8.424;2023-04-24T08:06:44;23.80;45.40
22290;DHT22;11313;50.116;8.424;2023-04-24T08:09:10;23.80;45.40
22290;DHT22;11313;50.116;8.424;2023-04-24T08:11:36;23.80;45.40
22290;DHT22;11313;50.116;8.424;2023-04-24T08:14:01;23.80;45.30
22290;DHT22;11313;50.116;8.424;2023-04-24T08:16:27;23.80;45.40
22290;DHT22;11313;50.116;8.424;2023-04-24T08:18:53;23.80;45.30
22290;DHT22;11313;50.116;8.424;2023-04-24T08:21:18;23.80;45.30
22290;DHT22;11313;50.116;8.424;2023-04-24T08:23:45;23.80;45.30
22290;DHT22;11313;50.116;8.424;2023-04-24T08:26:11;23.80;45.40
22290;DHT22;11313;50.116;8.424;2023-04-24T08:28:37;23.90;45.30
22290;DHT22;11313;50.116;8.424;2023-04-24T08:31:03;23.90;45.30
22290;DHT22;11313;50.116;8.424;2023-04-24T08:33:28;23.90;45.30
22290;DHT22;11313;50.116;8.424;2023-04-24T08:36:02;23.80;45.30
22290;DHT22;11313;50.116;8.424;2023-04-24T08:38:28;23.80;45.30
22290;DHT22;11313;50.116;8.424;2023-04-24T08:40:54;23.80;45.30
22290;DHT22;11313;50.116;8.424;2023-04-24T08:43:24;23.80;45.30
22290;DHT22;11313;50.116;8.424;2023-04-24T08:45:51;23.80;45.30
22290;DHT22;11313;50.116;8.424;2023-04-24T08:48:17;23.90;45.30
22290;DHT22;11313;50.116;8.424;2023-04-24T08:50:43;23.80;45.20
22290;DHT22;11313;50.116;8.424;2023-04-24T08:53:10;23.80;45.20
22290;DHT22;11313;50.116;8.424;2023-04-24T08:55:37;23.80;45.20
22290;DHT22;11313;50.116;8.424;2023-04-24T08:58:03;23.80;45.20
22290;DHT22;11313;50.116;8.424;2023-04-24T09:00:29;23.80;45.20
22290;DHT22;11313;50.116;8.424;2023-04-24T09:02:56;23.80;45.20
22290;DHT22;11313;50.116;8.424;2023-04-24T09:05:23;23.80;45.10
22290;DHT22;11313;50.116;8.424;2023-04-24T09:07:55;23.80;45.10
22290;DHT22;11313;50.116;8.424;2023-04-24T09:10:23;23.80;45.20
22290;DHT22;11313;50.116;8.424;2023-04-24T09:12:51;23.80;45.10
22290;DHT22;11313;50.116;8.424;2023-04-24T09:15:18;23.80;45.20
22290;DHT22;11313;50.116;8.424;2023-04-24T09:17:43;23.80;45.10
22290;DHT22;11313;50.116;8.424;2023-04-24T09:20:09;23.80;45.10
22290;DHT22;11313;50.116;8.424;2023-04-24T09:22:36;23.80;45.10
22290;DHT22;11313;50.116;8.424;2023-04-24T09:25:03;23.80;45.10
22290;DHT22;11313;50.116;8.424;2023-04-24T09:27:31;23.80;45.10
22290;DHT22;11313;50.116;8.424;2023-04-24T09:29:57;23.80;45.10
22290;DHT22;11313;50.116;8.424;2023-04-24T09:32:23;23.80;45.10
22290;DHT22;11313;50.116;8.424;2023-04-24T09:35:08;23.80;45.10
22290;DHT22;11313;50.116;8.424;2023-04-24T09:37:38;23.80;45.10
22290;DHT22;11313;50.116;8.424;2023-04-24T09:40:09;23.80;45.10
22290;DHT22;11313;50.116;8.424;2023-04-24T09:42:36;23.80;45.10
22290;DHT22;11313;50.116;8.424;2023-04-24T09:45:02;23.80;45.10
22290;DHT22;11313;50.116;8.424;2023-04-24T09:47:36;23.80;45.10
22290;DHT22;11313;50.116;8.424;2023-04-24T09:50:12;23.80;45.00
22290;DHT22;11313;50.116;8.424;2023-04-24T09:52:45;23.80;45.00
22290;DHT22;11313;50.116;8.424;2023-04-24T09:55:20;23.80;45.10
22290;DHT22;11313;50.116;8.424;2023-04-24T09:57:53;23.80;45.10
22290;DHT22;11313;50.116;8.424;2023-04-24T10:00:24;23.80;45.10
22290;DHT22;11313;50.116;8.424;2023-04-24T10:02:51;23.80;45.10
22290;DHT22;11313;50.116;8.424;2023-04-24T10:05:22;23.80;45.10
22290;DHT22;11313;50.116;8.424;2023-04-24T10:07:47;23.80;45.10
22290;DHT22;11313;50.116;8.424;2023-04-24T10:10:13;23.80;45.00
22290;DHT22;11313;50.116;8.424;2023-04-24T10:12:39;23.80;45.10
22290;DHT22;11313;50.116;8.424;2023-04-24T10:15:05;23.80;45.00
22290;DHT22;11313;50.116;8.424;2023-04-24T10:17:32;23.80;45.00
22290;DHT22;11313;50.116;8.424;2023-04-24T10:19:58;23.80;45.00
22290;DHT22;11313;50.116;8.424;2023-04-24T10:22:25;23.80;45.00
22290;DHT22;11313;50.116;8.424;2023-04-24T10:24:52;23.80;45.00
22290;DHT22;11313;50.116;8.424;2023-04-24T10:27:18;23.80;45.00
22290;DHT22;11313;50.116;8.424;2023-04-24T10:29:47;23.80;45.00
22290;DHT22;11313;50.116;8.424;2023-04-24T10:32:13;23.80;45.00
22290;DHT22;11313;50.116;8.424;2023-04-24T10:34:39;23.80;45.60
22290;DHT22;11313;50.116;8.424;2023-04-24T10:37:04;23.80;45.00
22290;DHT22;11313;50.116;8.424;2023-04-24T10:39:30;23.80;45.00
22290;DHT22;11313;50.116;8.424;2023-04-24T10:41:58;23.80;45.00
22290;DHT22;11313;50.116;8.424;2023-04-24T10:44:24;23.80;45.10
22290;DHT22;11313;50.116;8.424;2023-04-24T10:46:54;23.80;44.90
22290;DHT22;11313;50.116;8.424;2023-04-24T10:49:30;23.70;44.90
22290;DHT22;11313;50.116;8.424;2023-04-24T10:52:02;23.70;44.90
22290;DHT22;11313;50.116;8.424;2023-04-24T11:00:20;23.70;44.90
22290;DHT22;11313;50.116;8.424;2023-04-24T11:02:47;23.80;44.90
22290;DHT22;11313;50.116;8.424;2023-04-24T11:05:18;23.80;45.00
22290;DHT22;11313;50.116;8.424;2023-04-24T11:08:10;23.70;44.90
22290;DHT22;11313;50.116;8.424;2023-04-24T11:10:44;23.70;44.90
22290;DHT22;11313;50.116;8.424;2023-04-24T11:13:10;23.80;45.00
22290;DHT22;11313;50.116;8.424;2023-04-24T11:15:35;23.70;44.90
22290;DHT22;11313;50.116;8.424;2023-04-24T11:18:01;23.80;45.00
22290;DHT22;11313;50.116;8.424;2023-04-24T11:20:27;23.70;44.90
22290;DHT22;11313;50.116;8.424;2023-04-24T11:22:53;23.80;44.90
22290;DHT22;11313;50.116;8.424;2023-04-24T11:25:23;23.80;45.00
22290;DHT22;11313;50.116;8.424;2023-04-24T11:27:49;23.70;44.90
22290;DHT22;11313;50.116;8.424;2023-04-24T11:30:19;23.70;44.90
22290;DHT22;11313;50.116;8.424;2023-04-24T11:32:48;23.70;44.90
22290;DHT22;11313;50.116;8.424;2023-04-24T11:35:20;23.70;44.90
22290;DHT22;11313;50.116;8.424;2023-04-24T11:37:51;23.70;45.60
22290;DHT22;11313;50.116;8.424;2023-04-24T11:40:17;23.70;44.90
22290;DHT22;11313;50.116;8.424;2023-04-24T11:42:45;23.70;44.90
22290;DHT22;11313;50.116;8.424;2023-04-24T11:45:13;23.70;44.90
22290;DHT22;11313;50.116;8.424;2023-04-24T11:47:39;23.70;44.90
22290;DHT22;11313;50.116;8.424;2023-04-24T11:50:07;23.70;44.90
22290;DHT22;11313;50.116;8.424;2023-04-24T11:52:37;23.70;44.90
22290;DHT22;11313;50.116;8.424;2023-04-24T11:55:03;23.70;44.90
22290;DHT22;11313;50.116;8.424;2023-04-24T11:57:29;23.70;44.90
22290;DHT22;11313;50.116;8.424;2023-04-24T11:59:59;23.70;44.90
22290;DHT22;11313;50.116;8.424;2023-04-24T12:02:26;23.70;44.90
22290;DHT22;11313;50.116;8.424;2023-04-24T12:04:53;23.70;44.90
22290;DHT22;11313;50.116;8.424;2023-04-24T12:07:18;23.70;44.90
22290;DHT22;11313;50.116;8.424;2023-04-24T12:09:58;23.70;44.90
22290;DHT22;11313;50.116;8.424;2023-04-24T12:12:26;23.70;44.90
22290;DHT22;11313;50.116;8.424;2023-04-24T12:14:58;23.70;44.90
22290;DHT22;11313;50.116;8.424;2023-04-24T12:17:29;23.70;45.00
22290;DHT22;11313;50.116;8.424;2023-04-24T12:20:05;23.70;44.90
22290;DHT22;11313;50.116;8.424;2023-04-24T12:22:50;23.70;44.90
22290;DHT22;11313;50.116;8.424;2023-04-24T12:25:18;23.70;44.90
22290;DHT22;11313;50.116;8.424;2023-04-24T12:27:44;23.60;44.80
22290;DHT22;11313;50.116;8.424;2023-04-24T12:30:13;23.70;44.90
22290;DHT22;11313;50.116;8.424;2023-04-24T12:32:47;23.70;44.90
22290;DHT22;11313;50.116;8.424;2023-04-24T12:35:14;23.70;44.90
22290;DHT22;11313;50.116;8.424;2023-04-24T12:37:42;23.70;44.90
22290;DHT22;11313;50.116;8.424;2023-04-24T12:40:10;23.70;44.90
22290;DHT22;11313;50.116;8.424;2023-04-24T12:42:41;23.70;44.90
22290;DHT22;11313;50.116;8.424;2023-04-24T12:45:07;23.70;44.90
22290;DHT22;11313;50.116;8.424;2023-04-24T12:47:34;23.70;44.80
22290;DHT22;11313;50.116;8.424;2023-04-24T12:50:00;23.70;45.50
22290;DHT22;11313;50.116;8.424;2023-04-24T12:52:28;23.70;44.80
22290;DHT22;11313;50.116;8.424;2023-04-24T12:54:55;23.70;44.80
22290;DHT22;11313;50.116;8.424;2023-04-24T12:57:25;23.70;44.80
22290;DHT22;11313;50.116;8.424;2023-04-24T12:59:54;23.70;44.80
22290;DHT22;11313;50.116;8.424;2023-04-24T13:02:19;23.70;44.80
22290;DHT22;11313;50.116;8.424;2023-04-24T13:04:47;23.70;44.90
22290;DHT22;11313;50.116;8.424;2023-04-24T13:07:13;23.60;44.80
22290;DHT22;11313;50.116;8.424;2023-04-24T13:09:40;23.70;44.90
22290;DHT22;11313;50.116;8.424;2023-04-24T13:12:06;23.70;44.90
22290;DHT22;11313;50.116;8.424;2023-04-24T13:14:32;23.70;44.90
22290;DHT22;11313;50.116;8.424;2023-04-24T13:16:58;23.70;44.90
22290;DHT22;11313;50.116;8.424;2023-04-24T13:19:27;23.70;44.90
22290;DHT22;11313;50.116;8.424;2023-04-24T13:21:54;23.70;44.90
22290;DHT22;11313;50.116;8.424;2023-04-24T13:24:21;23.70;45.00
22290;DHT22;11313;50.116;8.424;2023-04-24T13:26:50;23.60;44.90
22290;DHT22;11313;50.116;8.424;2023-04-24T13:29:15;23.70;45.00
22290;DHT22;11313;50.116;8.424;2023-04-24T13:31:41;23.70;45.00
22290;DHT22;11313;50.116;8.424;2023-04-24T13:34:06;23.60;44.90
22290;DHT22;11313;50.116;8.424;2023-04-24T13:36:32;23.60;44.90
22290;DHT22;11313;50.116;8.424;2023-04-24T13:38:58;23.70;45.00
22290;DHT22;11313;50.116;8.424;2023-04-24T13:41:23;23.60;45.00
22290;DHT22;11313;50.116;8.424;2023-04-24T13:43:49;23.50;44.90
22290;DHT22;11313;50.116;8.424;2023-04-24T13:46:15;23.60;45.00
22290;DHT22;11313;50.116;8.424;2023-04-24T13:48:40;23.60;45.00
22290;DHT22;11313;50.116;8.424;2023-04-24T13:51:06;23.60;45.00
22290;DHT22;11313;50.116;8.424;2023-04-24T13:53:31;23.60;44.90
22290;DHT22;11313;50.116;8.424;2023-04-24T13:55:58;23.60;44.90
22290;DHT22;11313;50.116;8.424;2023-04-24T13:58:23;23.60;44.90
22290;DHT22;11313;50.116;8.424;2023-04-24T14:00:49;23.60;45.00
22290;DHT22;11313;50.116;8.424;2023-04-24T14:03:14;23.60;45.00
22290;DHT22;11313;50.116;8.424;2023-04-24T14:05:40;23.60;44.90
22290;DHT22;11313;50.116;8.424;2023-04-24T14:08:06;23.60;44.90
22290;DHT22;11313;50.116;8.424;2023-04-24T14:10:31;23.60;44.90
22290;DHT22;11313;50.116;8.424;2023-04-24T14:12:57;23.60;45.00
22290;DHT22;11313;50.116;8.424;2023-04-24T14:15:23;23.60;44.90
22290;DHT22;11313;50.116;8.424;2023-04-24T14:17:48;23.60;44.90
22290;DHT22;11313;50.116;8.424;2023-04-24T14:20:15;23.60;44.90
22290;DHT22;11313;50.116;8.424;2023-04-24T14:22:40;23.60;45.00
22290;DHT22;11313;50.116;8.424;2023-04-24T14:25:08;23.60;44.90
22290;DHT22;11313;50.116;8.424;2023-04-24T14:27:34;23.60;45.00
22290;DHT22;11313;50.116;8.424;2023-04-24T14:30:00;23.60;45.00
22290;DHT22;11313;50.116;8.424;2023-04-24T14:32:25;23.60;44.90
22290;DHT22;11313;50.116;8.424;2023-04-24T14:34:51;23.60;45.00
22290;DHT22;11313;50.116;8.424;2023-04-24T14:37:16;23.60;44.90
22290;DHT22;11313;50.116;8.424;2023-04-24T14:39:42;23.60;44.90
22290;DHT22;11313;50.116;8.424;2023-04-24T14:42:07;23.60;44.90
22290;DHT22;11313;50.116;8.424;2023-04-24T14:44:33;23.60;44.90
22290;DHT22;11313;50.116;8.424;2023-04-24T14:46:59;23.60;45.00
22290;DHT22;11313;50.116;8.424;2023-04-24T14:49:25;23.60;45.00
22290;DHT22;11313;50.116;8.424;2023-04-24T14:51:51;23.60;44.90
22290;DHT22;11313;50.116;8.424;2023-04-24T14:54:16;23.60;45.00
22290;DHT22;11313;50.116;8.424;2023-04-24T14:56:42;23.60;45.00
22290;DHT22;11313;50.116;8.424;2023-04-24T14:59:09;23.60;44.90
22290;DHT22;11313;50.116;8.424;2023-04-24T15:01:34;23.60;45.00
22290;DHT22;11313;50.116;8.424;2023-04-24T15:04:00;23.60;44.90
22290;DHT22;11313;50.116;8.424;2023-04-24T15:06:25;23.60;45.00
22290;DHT22;11313;50.116;8.424;2023-04-24T15:08:51;23.60;44.90
22290;DHT22;11313;50.116;8.424;2023-04-24T15:11:17;23.60;44.90
22290;DHT22;11313;50.116;8.424;2023-04-24T15:13:43;23.60;44.90
22290;DHT22;11313;50.116;8.424;2023-04-24T15:16:10;23.60;45.00
22290;DHT22;11313;50.116;8.424;2023-04-24T15:18:36;23.50;44.90
22290;DHT22;11313;50.116;8.424;2023-04-24T15:21:02;23.60;45.00
22290;DHT22;11313;50.116;8.424;2023-04-24T15:23:27;23.60;45.00
22290;DHT22;11313;50.116;8.424;2023-04-24T15:25:53;23.60;45.00
22290;DHT22;11313;50.116;8.424;2023-04-24T15:28:18;23.60;45.10
22290;DHT22;11313;50.116;8.424;2023-04-24T15:30:44;23.60;45.10